sensor_id;sensor_type;location;lat;lon;timestamp;temperature;humidity
17619;DHT22;8928;51.678;6.074;2023-03-02T00:01:08;-0.30;99.90
17619;DHT22;8928;51.678;6.074;2023-03-02T00:03:57;-0.40;99.90
17619;DHT22;8928;51.678;6.074;2023-03-02T00:06:45;-0.40;99.90
17619;DHT22;8928;51.678;6.074;2023-03-02T00:09:33;-0.40;99.90
17619;DHT22;8928;51.678;6.074;2023-03-02T00:12:21;-0.50;99.90
17619;DHT22;8928;51.678;6.074;2023-03-02T00:15:09;-0.60;99.90
17619;DHT22;8928;51.678;6.074;2023-03-02T00:17:58;-0.60;99.90
17619;DHT22;8928;51.678;6.074;2023-03-02T00:20:45;-0.60;99.90
17619;DHT22;8928;51.678;6.074;2023-03-02T00:23:32;-0.50;99.90
17619;DHT22;8928;51.678;6.074;2023-03-02T00:26:19;-0.60;99.90
17619;DHT22;8928;51.678;6.074;2023-03-02T00:29:06;-0.60;99.90
17619;DHT22;8928;51.678;6.074;2023-03-02T00:31:53;-0.50;99.90
17619;DHT22;8928;51.678;6.074;2023-03-02T00:34:42;-0.60;99.90
17619;DHT22;8928;51.678;6.074;2023-03-02T00:37:29;-0.60;99.90
17619;DHT22;8928;51.678;6.074;2023-03-02T00:40:16;-0.60;99.90
17619;DHT22;8928;51.678;6.074;2023-03-02T00:43:03;-0.70;99.90
17619;DHT22;8928;51.678;6.074;2023-03-02T00:45:50;-0.70;99.90
17619;DHT22;8928;51.678;6.074;2023-03-02T00:48:37;-0.70;99.90
17619;DHT22;8928;51.678;6.074;2023-03-02T00:51:25;-0.70;99.90
17619;DHT22;8928;51.678;6.074;2023-03-02T00:54:12;-0.80;99.90
17619;DHT22;8928;51.678;6.074;2023-03-02T00:56:59;-0.80;99.90
17619;DHT22;8928;51.678;6.074;2023-03-02T00:59:47;-0.80;99.90
17619;DHT22;8928;51.678;6.074;2023-03-02T01:02:33;-0.90;99.90
17619;DHT22;8928;51.678;6.074;2023-03-02T01:05:23;-0.80;99.90
17619;DHT22;8928;51.678;6.074;2023-03-02T01:08:12;-0.90;99.90
17619;DHT22;8928;51.678;6.074;2023-03-02T01:11:00;-0.90;99.90
17619;DHT22;8928;51.678;6.074;2023-03-02T01:13:47;-0.90;99.90
17619;DHT22;8928;51.678;6.074;2023-03-02T01:16:34;-0.90;99.90
17619;DHT22;8928;51.678;6.074;2023-03-02T01:19:22;-0.80;99.90
17619;DHT22;8928;51.678;6.074;2023-03-02T01:22:09;-0.90;99.90
17619;DHT22;8928;51.678;6.074;2023-03-02T01:24:57;-0.90;99.90
17619;DHT22;8928;51.678;6.074;2023-03-02T01:27:45;-0.90;99.90
17619;DHT22;8928;51.678;6.074;2023-03-02T01:30:32;-0.90;99.90
17619;DHT22;8928;51.678;6.074;2023-03-02T01:33:19;-0.90;99.90
17619;DHT22;8928;51.678;6.074;2023-03-02T01:36:07;-0.90;99.90
17619;DHT22;8928;51.678;6.074;2023-03-02T01:38:54;-0.90;99.90
17619;DHT22;8928;51.678;6.074;2023-03-02T01:41:42;-0.80;99.90
17619;DHT22;8928;51.678;6.074;2023-03-02T01:44:43;-0.80;99.90
17619;DHT22;8928;51.678;6.074;2023-03-02T01:47:34;-0.90;99.90
17619;DHT22;8928;51.678;6.074;2023-03-02T01:50:23;-0.90;99.90
17619;DHT22;8928;51.678;6.074;2023-03-02T01:53:13;-0.90;99.90
17619;DHT22;8928;51.678;6.074;2023-03-02T01:56:02;-0.90;99.90
17619;DHT22;8928;51.678;6.074;2023-03-02T01:58:53;-0.90;99.90
17619;DHT22;8928;51.678;6.074;2023-03-02T02:01:44;-0.90;99.90
17619;DHT22;8928;51.678;6.074;2023-03-02T02:04:35;-1.00;99.90
17619;DHT22;8928;51.678;6.074;2023-03-02T02:07:23;-1.00;99.90
17619;DHT22;8928;51.678;6.074;2023-03-02T02:10:10;-1.10;99.90
17619;DHT22;8928;51.678;6.074;2023-03-02T02:12:57;-1.10;99.90
17619;DHT22;8928;51.678;6.074;2023-03-02T02:15:46;-1.10;99.90
17619;DHT22;8928;51.678;6.074;2023-03-02T02:18:36;-1.10;99.90
17619;DHT22;8928;51.678;6.074;2023-03-02T02:21:24;-1.10;99.90
17619;DHT22;8928;51.678;6.074;2023-03-02T02:24:18;-1.10;99.90
17619;DHT22;8928;51.678;6.074;2023-03-02T02:27:09;-1.10;99.90
17619;DHT22;8928;51.678;6.074;2023-03-02T02:29:57;-1.10;99.90
17619;DHT22;8928;51.678;6.074;2023-03-02T02:32:45;-1.10;99.90
17619;DHT22;8928;51.678;6.074;2023-03-02T02:35:34;-1.10;99.90
17619;DHT22;8928;51.678;6.074;2023-03-02T02:38:23;-1.10;99.90
17619;DHT22;8928;51.678;6.074;2023-03-02T02:41:17;-1.10;99.90
17619;DHT22;8928;51.678;6.074;2023-03-02T02:44:08;-1.20;99.90
17619;DHT22;8928;51.678;6.074;2023-03-02T02:46:55;-1.20;99.90
17619;DHT22;8928;51.678;6.074;2023-03-02T02:49:43;-1.20;99.90
17619;DHT22;8928;51.678;6.074;2023-03-02T02:52:30;-1.20;99.90
17619;DHT22;8928;51.678;6.074;2023-03-02T02:55:20;-1.30;99.90
17619;DHT22;8928;51.678;6.074;2023-03-02T02:58:24;-1.30;99.90
17619;DHT22;8928;51.678;6.074;2023-03-02T03:01:16;-1.20;99.90
17619;DHT22;8928;51.678;6.074;2023-03-02T03:04:05;-1.20;99.90
17619;DHT22;8928;51.678;6.074;2023-03-02T03:06:55;-1.10;99.90
17619;DHT22;8928;51.678;6.074;2023-03-02T03:09:42;-1.10;99.90
17619;DHT22;8928;51.678;6.074;2023-03-02T03:12:31;-1.20;99.90
17619;DHT22;8928;51.678;6.074;2023-03-02T03:15:19;-1.20;99.90
17619;DHT22;8928;51.678;6.074;2023-03-02T03:18:08;-1.20;99.90
17619;DHT22;8928;51.678;6.074;2023-03-02T03:20:55;-1.20;99.90
17619;DHT22;8928;51.678;6.074;2023-03-02T03:23:42;-1.30;99.90
17619;DHT22;8928;51.678;6.074;2023-03-02T03:26:29;-1.30;99.90
17619;DHT22;8928;51.678;6.074;2023-03-02T03:29:17;-1.30;99.90
17619;DHT22;8928;51.678;6.074;2023-03-02T03:32:05;-1.30;99.90
17619;DHT22;8928;51.678;6.074;2023-03-02T03:34:53;-1.30;99.90
17619;DHT22;8928;51.678;6.074;2023-03-02T03:37:41;-1.20;99.90
17619;DHT22;8928;51.678;6.074;2023-03-02T03:40:28;-1.20;99.90
17619;DHT22;8928;51.678;6.074;2023-03-02T03:43:18;-1.20;99.90
17619;DHT22;8928;51.678;6.074;2023-03-02T03:46:06;-1.20;99.90
17619;DHT22;8928;51.678;6.074;2023-03-02T03:48:53;-1.20;99.90
17619;DHT22;8928;51.678;6.074;2023-03-02T03:51:41;-1.20;99.90
17619;DHT22;8928;51.678;6.074;2023-03-02T03:54:28;-1.10;99.90
17619;DHT22;8928;51.678;6.074;2023-03-02T03:57:15;-1.10;99.90
17619;DHT22;8928;51.678;6.074;2023-03-02T04:00:04;-1.10;99.90
17619;DHT22;8928;51.678;6.074;2023-03-02T04:02:52;-1.10;99.90
17619;DHT22;8928;51.678;6.074;2023-03-02T04:05:39;-1.20;99.90
17619;DHT22;8928;51.678;6.074;2023-03-02T04:08:28;-1.20;99.90
17619;DHT22;8928;51.678;6.074;2023-03-02T04:11:15;-1.20;99.90
17619;DHT22;8928;51.678;6.074;2023-03-02T04:14:03;-1.20;99.90
17619;DHT22;8928;51.678;6.074;2023-03-02T04:16:51;-1.20;99.90
17619;DHT22;8928;51.678;6.074;2023-03-02T04:19:38;-1.20;99.90
17619;DHT22;8928;51.678;6.074;2023-03-02T04:22:26;-1.30;99.90
17619;DHT22;8928;51.678;6.074;2023-03-02T04:25:16;-1.30;99.90
17619;DHT22;8928;51.678;6.074;2023-03-02T04:28:05;-1.20;99.90
17619;DHT22;8928;51.678;6.074;2023-03-02T04:30:52;-1.30;99.90
17619;DHT22;8928;51.678;6.074;2023-03-02T04:33:39;-1.30;99.90
17619;DHT22;8928;51.678;6.074;2023-03-02T04:36:26;-1.30;99.90
17619;DHT22;8928;51.678;6.074;2023-03-02T04:39:14;-1.30;99.90
17619;DHT22;8928;51.678;6.074;2023-03-02T04:42:03;-1.30;99.90
17619;DHT22;8928;51.678;6.074;2023-03-02T04:44:50;-1.30;99.90
17619;DHT22;8928;51.678;6.074;2023-03-02T04:47:37;-1.30;99.90
17619;DHT22;8928;51.678;6.074;2023-03-02T04:50:24;-1.30;99.90
17619;DHT22;8928;51.678;6.074;2023-03-02T04:53:11;-1.30;99.90
17619;DHT22;8928;51.678;6.074;2023-03-02T04:55:58;-1.30;99.90
17619;DHT22;8928;51.678;6.074;2023-03-02T04:58:47;-1.30;99.90
17619;DHT22;8928;51.678;6.074;2023-03-02T05:01:34;-1.30;99.90
17619;DHT22;8928;51.678;6.074;2023-03-02T05:04:21;-1.30;99.90
17619;DHT22;8928;51.678;6.074;2023-03-02T05:07:09;-1.30;99.90
17619;DHT22;8928;51.678;6.074;2023-03-02T05:09:56;-1.30;99.90
17619;DHT22;8928;51.678;6.074;2023-03-02T05:12:43;-1.30;99.90
17619;DHT22;8928;51.678;6.074;2023-03-02T05:15:43;-1.30;99.90
17619;DHT22;8928;51.678;6.074;2023-03-02T05:18:30;-1.40;99.90
17619;DHT22;8928;51.678;6.074;2023-03-02T05:21:18;-1.40;99.90
17619;DHT22;8928;51.678;6.074;2023-03-02T05:24:05;-1.40;99.90
17619;DHT22;8928;51.678;6.074;2023-03-02T05:26:52;-1.50;99.90
17619;DHT22;8928;51.678;6.074;2023-03-02T05:29:39;-1.50;99.90
17619;DHT22;8928;51.678;6.074;2023-03-02T05:32:28;-1.40;99.90
17619;DHT22;8928;51.678;6.074;2023-03-02T05:35:15;-1.40;99.90
17619;DHT22;8928;51.678;6.074;2023-03-02T05:38:02;-1.40;99.90
17619;DHT22;8928;51.678;6.074;2023-03-02T05:40:50;-1.40;99.90
17619;DHT22;8928;51.678;6.074;2023-03-02T05:43:38;-1.40;99.90
17619;DHT22;8928;51.678;6.074;2023-03-02T05:46:25;-1.50;99.90
17619;DHT22;8928;51.678;6.074;2023-03-02T05:49:14;-1.50;99.90
17619;DHT22;8928;51.678;6.074;2023-03-02T05:52:01;-1.50;99.90
17619;DHT22;8928;51.678;6.074;2023-03-02T05:54:48;-1.60;99.90
17619;DHT22;8928;51.678;6.074;2023-03-02T05:57:35;-1.60;99.90
17619;DHT22;8928;51.678;6.074;2023-03-02T06:00:22;-1.60;99.90
17619;DHT22;8928;51.678;6.074;2023-03-02T06:03:10;-1.60;99.90
17619;DHT22;8928;51.678;6.074;2023-03-02T06:05:58;-1.60;99.90
17619;DHT22;8928;51.678;6.074;2023-03-02T06:08:45;-1.60;99.90
17619;DHT22;8928;51.678;6.074;2023-03-02T06:11:32;-1.60;99.90
17619;DHT22;8928;51.678;6.074;2023-03-02T06:14:19;-1.60;99.90
17619;DHT22;8928;51.678;6.074;2023-03-02T06:17:06;-1.60;99.90
17619;DHT22;8928;51.678;6.074;2023-03-02T06:19:53;-1.70;99.90
17619;DHT22;8928;51.678;6.074;2023-03-02T06:22:43;-1.70;99.90
17619;DHT22;8928;51.678;6.074;2023-03-02T06:25:30;-1.70;99.90
17619;DHT22;8928;51.678;6.074;2023-03-02T06:28:18;-1.70;99.90
17619;DHT22;8928;51.678;6.074;2023-03-02T06:31:06;-1.70;99.90
17619;DHT22;8928;51.678;6.074;2023-03-02T06:33:53;-1.70;99.90
17619;DHT22;8928;51.678;6.074;2023-03-02T06:36:40;-1.70;99.90
17619;DHT22;8928;51.678;6.074;2023-03-02T06:39:29;-1.70;99.90
17619;DHT22;8928;51.678;6.074;2023-03-02T06:42:16;-1.70;99.90
17619;DHT22;8928;51.678;6.074;2023-03-02T06:45:04;-1.60;99.90
17619;DHT22;8928;51.678;6.074;2023-03-02T06:47:51;-1.70;99.90
17619;DHT22;8928;51.678;6.074;2023-03-02T06:50:38;-1.60;99.90
17619;DHT22;8928;51.678;6.074;2023-03-02T06:53:25;-1.60;99.90
17619;DHT22;8928;51.678;6.074;2023-03-02T06:56:13;-1.60;99.90
17619;DHT22;8928;51.678;6.074;2023-03-02T06:59:00;-1.60;99.90
17619;DHT22;8928;51.678;6.074;2023-03-02T07:01:47;-1.50;99.90
17619;DHT22;8928;51.678;6.074;2023-03-02T07:04:35;-1.50;99.90
17619;DHT22;8928;51.678;6.074;2023-03-02T07:07:22;-1.40;99.90
17619;DHT22;8928;51.678;6.074;2023-03-02T07:10:10;-1.40;99.90
17619;DHT22;8928;51.678;6.074;2023-03-02T07:12:59;-1.40;99.90
17619;DHT22;8928;51.678;6.074;2023-03-02T07:15:46;-1.30;99.90
17619;DHT22;8928;51.678;6.074;2023-03-02T07:18:33;-1.30;99.90
17619;DHT22;8928;51.678;6.074;2023-03-02T07:21:20;-1.20;99.90
17619;DHT22;8928;51.678;6.074;2023-03-02T07:24:07;-1.10;99.90
17619;DHT22;8928;51.678;6.074;2023-03-02T07:26:54;-1.10;99.90
17619;DHT22;8928;51.678;6.074;2023-03-02T07:29:42;-1.00;99.90
17619;DHT22;8928;51.678;6.074;2023-03-02T07:32:30;-0.90;99.90
17619;DHT22;8928;51.678;6.074;2023-03-02T07:35:17;-0.80;99.90
17619;DHT22;8928;51.678;6.074;2023-03-02T07:38:04;-0.80;99.90
17619;DHT22;8928;51.678;6.074;2023-03-02T07:40:51;-0.70;99.90
17619;DHT22;8928;51.678;6.074;2023-03-02T07:43:38;-0.70;99.90
17619;DHT22;8928;51.678;6.074;2023-03-02T07:46:26;-0.60;99.90
17619;DHT22;8928;51.678;6.074;2023-03-02T07:49:14;-0.50;99.90
17619;DHT22;8928;51.678;6.074;2023-03-02T07:52:01;-0.40;99.90
17619;DHT22;8928;51.678;6.074;2023-03-02T07:54:48;-0.30;99.90
17619;DHT22;8928;51.678;6.074;2023-03-02T07:57:36;-0.20;99.90
17619;DHT22;8928;51.678;6.074;2023-03-02T08:00:23;-0.10;99.90
17619;DHT22;8928;51.678;6.074;2023-03-02T08:03:11;-0.10;99.90
17619;DHT22;8928;51.678;6.074;2023-03-02T08:06:03;0.10;99.90
17619;DHT22;8928;51.678;6.074;2023-03-02T08:08:50;0.20;99.90
17619;DHT22;8928;51.678;6.074;2023-03-02T08:11:37;0.30;99.90
17619;DHT22;8928;51.678;6.074;2023-03-02T08:14:25;0.40;99.90
17619;DHT22;8928;51.678;6.074;2023-03-02T08:17:12;0.40;99.90
17619;DHT22;8928;51.678;6.074;2023-03-02T08:20:00;0.50;99.90
17619;DHT22;8928;51.678;6.074;2023-03-02T08:22:49;0.60;99.90
17619;DHT22;8928;51.678;6.074;2023-03-02T08:25:36;0.70;99.90
17619;DHT22;8928;51.678;6.074;2023-03-02T08:28:27;0.80;99.90
17619;DHT22;8928;51.678;6.074;2023-03-02T08:31:14;0.90;99.90
17619;DHT22;8928;51.678;6.074;2023-03-02T08:34:01;1.00;99.90
17619;DHT22;8928;51.678;6.074;2023-03-02T08:36:50;1.10;99.90
17619;DHT22;8928;51.678;6.074;2023-03-02T08:39:37;1.30;99.90
17619;DHT22;8928;51.678;6.074;2023-03-02T08:42:24;1.40;99.90
17619;DHT22;8928;51.678;6.074;2023-03-02T08:45:11;1.50;99.90
17619;DHT22;8928;51.678;6.074;2023-03-02T08:47:58;1.70;99.90
17619;DHT22;8928;51.678;6.074;2023-03-02T08:50:54;1.80;99.90
17619;DHT22;8928;51.678;6.074;2023-03-02T08:53:43;1.90;99.90
17619;DHT22;8928;51.678;6.074;2023-03-02T08:56:32;2.10;99.90
17619;DHT22;8928;51.678;6.074;2023-03-02T08:59:20;2.20;99.90
17619;DHT22;8928;51.678;6.074;2023-03-02T09:02:09;2.30;99.90
17619;DHT22;8928;51.678;6.074;2023-03-02T09:04:56;2.40;99.90
17619;DHT22;8928;51.678;6.074;2023-03-02T09:07:44;2.50;99.90
17619;DHT22;8928;51.678;6.074;2023-03-02T09:10:32;2.60;99.90
17619;DHT22;8928;51.678;6.074;2023-03-02T09:13:19;2.80;99.90
17619;DHT22;8928;51.678;6.074;2023-03-02T09:16:07;2.90;99.90
17619;DHT22;8928;51.678;6.074;2023-03-02T09:18:54;3.10;99.90
17619;DHT22;8928;51.678;6.074;2023-03-02T09:21:41;3.30;99.90
17619;DHT22;8928;51.678;6.074;2023-03-02T09:24:28;3.40;99.90
17619;DHT22;8928;51.678;6.074;2023-03-02T09:27:17;3.60;99.90
17619;DHT22;8928;51.678;6.074;2023-03-02T09:30:05;3.70;99.90
17619;DHT22;8928;51.678;6.074;2023-03-02T09:32:52;3.80;99.90
17619;DHT22;8928;51.678;6.074;2023-03-02T09:35:39;4.00;99.90
17619;DHT22;8928;51.678;6.074;2023-03-02T09:38:26;4.30;99.90
17619;DHT22;8928;51.678;6.074;2023-03-02T09:41:48;4.40;99.90
17619;DHT22;8928;51.678;6.074;2023-03-02T09:44:58;4.60;99.90
17619;DHT22;8928;51.678;6.074;2023-03-02T09:47:52;4.80;99.90
17619;DHT22;8928;51.678;6.074;2023-03-02T09:50:52;5.00;99.90
17619;DHT22;8928;51.678;6.074;2023-03-02T09:53:46;5.20;99.90
17619;DHT22;8928;51.678;6.074;2023-03-02T09:56:41;5.30;99.90
17619;DHT22;8928;51.678;6.074;2023-03-02T09:59:35;5.50;99.90
17619;DHT22;8928;51.678;6.074;2023-03-02T10:02:28;5.80;99.90
17619;DHT22;8928;51.678;6.074;2023-03-02T10:05:17;6.00;99.90
17619;DHT22;8928;51.678;6.074;2023-03-02T10:08:10;6.00;99.90
17619;DHT22;8928;51.678;6.074;2023-03-02T10:11:06;6.10;99.90
17619;DHT22;8928;51.678;6.074;2023-03-02T10:13:59;6.10;99.90
17619;DHT22;8928;51.678;6.074;2023-03-02T10:16:52;6.20;99.90
17619;DHT22;8928;51.678;6.074;2023-03-02T10:19:48;6.30;99.90
17619;DHT22;8928;51.678;6.074;2023-03-02T10:22:41;6.50;99.90
17619;DHT22;8928;51.678;6.074;2023-03-02T10:25:35;6.70;99.90
17619;DHT22;8928;51.678;6.074;2023-03-02T10:28:29;6.90;99.90
17619;DHT22;8928;51.678;6.074;2023-03-02T10:31:24;7.10;99.90
17619;DHT22;8928;51.678;6.074;2023-03-02T10:34:12;7.20;99.90
17619;DHT22;8928;51.678;6.074;2023-03-02T10:37:00;7.20;99.90
17619;DHT22;8928;51.678;6.074;2023-03-02T10:39:48;7.30;99.90
17619;DHT22;8928;51.678;6.074;2023-03-02T10:42:36;7.60;99.90
17619;DHT22;8928;51.678;6.074;2023-03-02T10:45:28;7.80;99.90
17619;DHT22;8928;51.678;6.074;2023-03-02T10:48:15;8.10;99.90
17619;DHT22;8928;51.678;6.074;2023-03-02T10:51:03;8.20;99.90
17619;DHT22;8928;51.678;6.074;2023-03-02T10:54:02;8.30;99.90
17619;DHT22;8928;51.678;6.074;2023-03-02T10:56:52;8.50;99.90
17619;DHT22;8928;51.678;6.074;2023-03-02T10:59:42;8.80;99.90
17619;DHT22;8928;51.678;6.074;2023-03-02T11:02:32;9.00;99.90
17619;DHT22;8928;51.678;6.074;2023-03-02T11:05:25;9.20;99.90
17619;DHT22;8928;51.678;6.074;2023-03-02T11:08:16;9.30;99.90
17619;DHT22;8928;51.678;6.074;2023-03-02T11:11:17;9.40;99.90
17619;DHT22;8928;51.678;6.074;2023-03-02T11:14:07;9.60;99.90
17619;DHT22;8928;51.678;6.074;2023-03-02T11:16:54;9.80;99.90
17619;DHT22;8928;51.678;6.074;2023-03-02T11:19:42;10.10;99.90
17619;DHT22;8928;51.678;6.074;2023-03-02T11:22:35;10.30;99.90
17619;DHT22;8928;51.678;6.074;2023-03-02T11:25:27;10.40;99.90
17619;DHT22;8928;51.678;6.074;2023-03-02T11:28:36;10.50;99.90
17619;DHT22;8928;51.678;6.074;2023-03-02T11:31:28;10.70;99.90
17619;DHT22;8928;51.678;6.074;2023-03-02T11:34:29;11.00;99.90
17619;DHT22;8928;51.678;6.074;2023-03-02T11:37:19;11.20;99.90
17619;DHT22;8928;51.678;6.074;2023-03-02T11:40:21;11.20;99.90
17619;DHT22;8928;51.678;6.074;2023-03-02T11:43:11;11.40;99.90
17619;DHT22;8928;51.678;6.074;2023-03-02T11:46:01;11.60;99.90
17619;DHT22;8928;51.678;6.074;2023-03-02T11:48:51;11.80;99.90
17619;DHT22;8928;51.678;6.074;2023-03-02T11:51:41;11.90;99.90
17619;DHT22;8928;51.678;6.074;2023-03-02T11:54:38;12.20;99.90
17619;DHT22;8928;51.678;6.074;2023-03-02T11:57:28;12.10;99.90
17619;DHT22;8928;51.678;6.074;2023-03-02T12:00:27;12.20;99.90
17619;DHT22;8928;51.678;6.074;2023-03-02T12:03:22;12.30;99.90
17619;DHT22;8928;51.678;6.074;2023-03-02T12:06:26;12.50;99.90
17619;DHT22;8928;51.678;6.074;2023-03-02T12:09:33;12.60;99.90
17619;DHT22;8928;51.678;6.074;2023-03-02T12:12:40;12.90;99.90
17619;DHT22;8928;51.678;6.074;2023-03-02T12:15:38;13.00;99.90
17619;DHT22;8928;51.678;6.074;2023-03-02T12:18:41;13.20;99.90
17619;DHT22;8928;51.678;6.074;2023-03-02T12:21:38;13.10;99.90
17619;DHT22;8928;51.678;6.074;2023-03-02T12:24:28;13.10;99.90
17619;DHT22;8928;51.678;6.074;2023-03-02T12:27:24;13.20;99.90
17619;DHT22;8928;51.678;6.074;2023-03-02T12:30:24;13.30;99.90
17619;DHT22;8928;51.678;6.074;2023-03-02T12:33:19;13.40;99.90
17619;DHT22;8928;51.678;6.074;2023-03-02T12:36:14;13.20;99.90
17619;DHT22;8928;51.678;6.074;2023-03-02T12:39:17;13.60;99.90
17619;DHT22;8928;51.678;6.074;2023-03-02T12:42:21;13.60;99.90
17619;DHT22;8928;51.678;6.074;2023-03-02T12:45:19;13.80;99.90
17619;DHT22;8928;51.678;6.074;2023-03-02T12:48:22;13.80;99.90
17619;DHT22;8928;51.678;6.074;2023-03-02T12:51:15;14.00;99.90
17619;DHT22;8928;51.678;6.074;2023-03-02T12:54:05;14.10;99.90
17619;DHT22;8928;51.678;6.074;2023-03-02T12:57:11;14.30;99.90
17619;DHT22;8928;51.678;6.074;2023-03-02T13:00:01;14.00;99.90
17619;DHT22;8928;51.678;6.074;2023-03-02T13:02:50;14.10;99.90
17619;DHT22;8928;51.678;6.074;2023-03-02T13:05:38;14.40;99.90
17619;DHT22;8928;51.678;6.074;2023-03-02T13:08:28;14.50;99.90
17619;DHT22;8928;51.678;6.074;2023-03-02T13:11:21;14.80;99.90
17619;DHT22;8928;51.678;6.074;2023-03-02T13:14:20;15.10;99.90
17619;DHT22;8928;51.678;6.074;2023-03-02T13:17:21;14.90;99.10
17619;DHT22;8928;51.678;6.074;2023-03-02T13:20:11;14.80;98.40
17619;DHT22;8928;51.678;6.074;2023-03-02T13:22:58;15.20;98.90
17619;DHT22;8928;51.678;6.074;2023-03-02T13:25:49;15.40;97.20
17619;DHT22;8928;51.678;6.074;2023-03-02T13:28:38;15.60;94.70
17619;DHT22;8928;51.678;6.074;2023-03-02T13:31:25;15.90;92.70
17619;DHT22;8928;51.678;6.074;2023-03-02T13:34:20;15.90;93.50
17619;DHT22;8928;51.678;6.074;2023-03-02T13:37:19;15.80;92.40
17619;DHT22;8928;51.678;6.074;2023-03-02T13:40:32;15.80;92.80
17619;DHT22;8928;51.678;6.074;2023-03-02T13:43:29;16.20;92.90
17619;DHT22;8928;51.678;6.074;2023-03-02T13:46:32;16.40;92.10
17619;DHT22;8928;51.678;6.074;2023-03-02T13:49:27;16.90;88.50
17619;DHT22;8928;51.678;6.074;2023-03-02T13:52:18;16.80;86.60
17619;DHT22;8928;51.678;6.074;2023-03-02T13:55:12;16.80;87.10
17619;DHT22;8928;51.678;6.074;2023-03-02T13:58:00;17.30;87.70
17619;DHT22;8928;51.678;6.074;2023-03-02T14:00:49;17.60;86.70
17619;DHT22;8928;51.678;6.074;2023-03-02T14:03:37;18.20;81.20
17619;DHT22;8928;51.678;6.074;2023-03-02T14:06:24;18.00;79.70
17619;DHT22;8928;51.678;6.074;2023-03-02T14:09:11;18.40;77.80
17619;DHT22;8928;51.678;6.074;2023-03-02T14:11:58;18.00;76.70
17619;DHT22;8928;51.678;6.074;2023-03-02T14:14:45;18.40;78.40
17619;DHT22;8928;51.678;6.074;2023-03-02T14:17:34;18.20;74.50
17619;DHT22;8928;51.678;6.074;2023-03-02T14:20:21;18.40;73.00
17619;DHT22;8928;51.678;6.074;2023-03-02T14:23:08;18.50;70.00
17619;DHT22;8928;51.678;6.074;2023-03-02T14:25:55;18.80;71.30
17619;DHT22;8928;51.678;6.074;2023-03-02T14:28:43;19.20;71.20
17619;DHT22;8928;51.678;6.074;2023-03-02T14:31:30;19.30;71.10
17619;DHT22;8928;51.678;6.074;2023-03-02T14:34:18;19.60;70.40
17619;DHT22;8928;51.678;6.074;2023-03-02T14:37:07;19.90;69.20
17619;DHT22;8928;51.678;6.074;2023-03-02T14:39:57;19.30;65.50
17619;DHT22;8928;51.678;6.074;2023-03-02T14:42:44;19.20;65.40
17619;DHT22;8928;51.678;6.074;2023-03-02T14:45:31;19.10;65.80
17619;DHT22;8928;51.678;6.074;2023-03-02T14:48:18;19.40;66.00
17619;DHT22;8928;51.678;6.074;2023-03-02T14:51:14;19.30;64.30
17619;DHT22;8928;51.678;6.074;2023-03-02T14:54:07;19.40;63.80
17619;DHT22;8928;51.678;6.074;2023-03-02T14:56:55;19.40;63.00
17619;DHT22;8928;51.678;6.074;2023-03-02T14:59:42;19.30;62.60
17619;DHT22;8928;51.678;6.074;2023-03-02T15:02:29;19.60;64.10
17619;DHT22;8928;51.678;6.074;2023-03-02T15:05:16;19.90;63.10
17619;DHT22;8928;51.678;6.074;2023-03-02T15:08:05;19.60;61.10
17619;DHT22;8928;51.678;6.074;2023-03-02T15:10:52;18.80;61.80
17619;DHT22;8928;51.678;6.074;2023-03-02T15:13:39;18.70;61.30
17619;DHT22;8928;51.678;6.074;2023-03-02T15:16:26;18.90;61.30
17619;DHT22;8928;51.678;6.074;2023-03-02T15:19:13;18.60;60.10
17619;DHT22;8928;51.678;6.074;2023-03-02T15:22:00;18.20;60.50
17619;DHT22;8928;51.678;6.074;2023-03-02T15:24:48;17.80;62.00
17619;DHT22;8928;51.678;6.074;2023-03-02T15:27:35;17.10;62.70
17619;DHT22;8928;51.678;6.074;2023-03-02T15:30:23;17.30;63.80
17619;DHT22;8928;51.678;6.074;2023-03-02T15:33:15;17.20;63.70
17619;DHT22;8928;51.678;6.074;2023-03-02T15:36:02;17.20;64.00
17619;DHT22;8928;51.678;6.074;2023-03-02T15:38:51;17.00;64.60
17619;DHT22;8928;51.678;6.074;2023-03-02T15:41:39;16.60;65.70
17619;DHT22;8928;51.678;6.074;2023-03-02T15:44:27;16.20;65.40
17619;DHT22;8928;51.678;6.074;2023-03-02T15:47:14;15.80;65.70
17619;DHT22;8928;51.678;6.074;2023-03-02T15:50:01;15.70;67.20
17619;DHT22;8928;51.678;6.074;2023-03-02T15:52:48;15.40;68.20
17619;DHT22;8928;51.678;6.074;2023-03-02T15:55:39;15.40;69.70
17619;DHT22;8928;51.678;6.074;2023-03-02T15:58:27;15.20;69.70
17619;DHT22;8928;51.678;6.074;2023-03-02T16:01:15;15.00;70.60
17619;DHT22;8928;51.678;6.074;2023-03-02T16:04:02;14.50;71.20
17619;DHT22;8928;51.678;6.074;2023-03-02T16:06:49;14.40;73.40
17619;DHT22;8928;51.678;6.074;2023-03-02T16:09:36;14.00;74.40
17619;DHT22;8928;51.678;6.074;2023-03-02T16:12:23;13.70;74.50
17619;DHT22;8928;51.678;6.074;2023-03-02T16:15:11;13.20;74.70
17619;DHT22;8928;51.678;6.074;2023-03-02T16:17:58;12.60;76.00
17619;DHT22;8928;51.678;6.074;2023-03-02T16:20:45;11.90;77.60
17619;DHT22;8928;51.678;6.074;2023-03-02T16:23:32;11.40;79.50
17619;DHT22;8928;51.678;6.074;2023-03-02T16:26:20;10.80;82.50
17619;DHT22;8928;51.678;6.074;2023-03-02T16:29:07;10.50;86.50
17619;DHT22;8928;51.678;6.074;2023-03-02T16:31:56;10.00;90.40
17619;DHT22;8928;51.678;6.074;2023-03-02T16:34:43;9.70;93.30
17619;DHT22;8928;51.678;6.074;2023-03-02T16:37:30;9.40;96.80
17619;DHT22;8928;51.678;6.074;2023-03-02T16:40:17;9.10;99.90
17619;DHT22;8928;51.678;6.074;2023-03-02T16:43:04;8.90;99.90
17619;DHT22;8928;51.678;6.074;2023-03-02T16:45:54;8.70;99.90
17619;DHT22;8928;51.678;6.074;2023-03-02T16:48:43;8.50;99.90
17619;DHT22;8928;51.678;6.074;2023-03-02T16:51:30;8.30;99.90
17619;DHT22;8928;51.678;6.074;2023-03-02T16:54:18;8.20;99.90
17619;DHT22;8928;51.678;6.074;2023-03-02T16:57:05;8.10;99.90
17619;DHT22;8928;51.678;6.074;2023-03-02T16:59:54;7.90;99.90
17619;DHT22;8928;51.678;6.074;2023-03-02T17:02:41;7.70;99.90
17619;DHT22;8928;51.678;6.074;2023-03-02T17:05:30;7.60;99.90
17619;DHT22;8928;51.678;6.074;2023-03-02T17:08:17;7.40;99.90
17619;DHT22;8928;51.678;6.074;2023-03-02T17:11:04;7.30;99.90
17619;DHT22;8928;51.678;6.074;2023-03-02T17:13:51;7.10;99.90
17619;DHT22;8928;51.678;6.074;2023-03-02T17:16:38;7.00;99.90
17619;DHT22;8928;51.678;6.074;2023-03-02T17:19:27;6.80;99.90
17619;DHT22;8928;51.678;6.074;2023-03-02T17:22:15;6.70;99.90
17619;DHT22;8928;51.678;6.074;2023-03-02T17:25:03;6.50;99.90
17619;DHT22;8928;51.678;6.074;2023-03-02T17:27:50;6.40;99.90
17619;DHT22;8928;51.678;6.074;2023-03-02T17:30:38;6.30;99.90
17619;DHT22;8928;51.678;6.074;2023-03-02T17:33:25;6.20;99.90
17619;DHT22;8928;51.678;6.074;2023-03-02T17:36:14;6.10;99.90
17619;DHT22;8928;51.678;6.074;2023-03-02T17:39:03;6.10;99.90
17619;DHT22;8928;51.678;6.074;2023-03-02T17:41:50;6.00;99.90
17619;DHT22;8928;51.678;6.074;2023-03-02T17:44:37;5.90;99.90
17619;DHT22;8928;51.678;6.074;2023-03-02T17:47:25;5.80;99.90
17619;DHT22;8928;51.678;6.074;2023-03-02T17:50:12;5.80;99.90
17619;DHT22;8928;51.678;6.074;2023-03-02T17:52:59;5.70;99.90
17619;DHT22;8928;51.678;6.074;2023-03-02T17:55:48;5.70;99.90
17619;DHT22;8928;51.678;6.074;2023-03-02T17:58:36;5.60;99.90
17619;DHT22;8928;51.678;6.074;2023-03-02T18:01:23;5.50;99.90
17619;DHT22;8928;51.678;6.074;2023-03-02T18:04:10;5.40;99.90
17619;DHT22;8928;51.678;6.074;2023-03-02T18:06:57;5.30;99.90
17619;DHT22;8928;51.678;6.074;2023-03-02T18:09:46;5.20;99.90
17619;DHT22;8928;51.678;6.074;2023-03-02T18:12:34;5.20;99.90